sensor_id;sensor_type;location;lat;lon;timestamp;P1;durP1;ratioP1;P2;durP2;ratioP2
8474;SDS011;4274;52.012;8.448;2023-02-22T00:00:12;72.70;;;14.00;;
8474;SDS011;4274;52.012;8.448;2023-02-22T00:02:50;72.53;;;13.37;;
8474;SDS011;4274;52.012;8.448;2023-02-22T00:05:16;71.47;;;11.87;;
8474;SDS011;4274;52.012;8.448;2023-02-22T00:07:48;64.00;;;11.00;;
8474;SDS011;4274;52.012;8.448;2023-02-22T00:10:15;69.17;;;10.87;;
8474;SDS011;4274;52.012;8.448;2023-02-22T00:12:44;66.53;;;11.30;;
8474;SDS011;4274;52.012;8.448;2023-02-22T00:15:12;69.10;;;12.83;;
8474;SDS011;4274;52.012;8.448;2023-02-22T00:17:39;64.87;;;11.07;;
8474;SDS011;4274;52.012;8.448;2023-02-22T00:20:05;63.17;;;10.73;;
8474;SDS011;4274;52.012;8.448;2023-02-22T00:22:31;67.57;;;13.33;;
8474;SDS011;4274;52.012;8.448;2023-02-22T00:24:57;70.70;;;12.37;;
8474;SDS011;4274;52.012;8.448;2023-02-22T00:27:23;62.17;;;11.70;;
8474;SDS011;4274;52.012;8.448;2023-02-22T00:29:49;61.00;;;11.93;;
8474;SDS011;4274;52.012;8.448;2023-02-22T00:32:14;65.83;;;10.60;;
8474;SDS011;4274;52.012;8.448;2023-02-22T00:34:40;69.13;;;11.90;;
8474;SDS011;4274;52.012;8.448;2023-02-22T00:37:07;66.00;;;12.13;;
8474;SDS011;4274;52.012;8.448;2023-02-22T00:39:35;67.50;;;12.30;;
8474;SDS011;4274;52.012;8.448;2023-02-22T00:42:01;60.70;;;11.17;;
8474;SDS011;4274;52.012;8.448;2023-02-22T00:44:26;71.67;;;14.07;;
8474;SDS011;4274;52.012;8.448;2023-02-22T00:46:52;67.40;;;14.73;;
8474;SDS011;4274;52.012;8.448;2023-02-22T00:49:18;69.07;;;13.27;;
8474;SDS011;4274;52.012;8.448;2023-02-22T00:51:43;77.60;;;14.93;;
8474;SDS011;4274;52.012;8.448;2023-02-22T00:54:09;71.40;;;14.10;;
8474;SDS011;4274;52.012;8.448;2023-02-22T00:56:35;63.33;;;13.50;;
8474;SDS011;4274;52.012;8.448;2023-02-22T00:59:01;68.03;;;13.50;;
8474;SDS011;4274;52.012;8.448;2023-02-22T01:01:28;71.13;;;15.40;;
8474;SDS011;4274;52.012;8.448;2023-02-22T01:03:54;72.47;;;13.67;;
8474;SDS011;4274;52.012;8.448;2023-02-22T01:06:20;69.27;;;14.40;;
8474;SDS011;4274;52.012;8.448;2023-02-22T01:08:47;75.30;;;15.50;;
8474;SDS011;4274;52.012;8.448;2023-02-22T01:11:14;68.50;;;14.80;;
8474;SDS011;4274;52.012;8.448;2023-02-22T01:13:41;76.23;;;15.40;;
8474;SDS011;4274;52.012;8.448;2023-02-22T01:16:09;68.17;;;13.93;;
8474;SDS011;4274;52.012;8.448;2023-02-22T01:18:35;67.07;;;13.30;;
8474;SDS011;4274;52.012;8.448;2023-02-22T01:21:01;75.23;;;14.57;;
8474;SDS011;4274;52.012;8.448;2023-02-22T01:23:27;71.53;;;15.00;;
8474;SDS011;4274;52.012;8.448;2023-02-22T01:25:53;79.83;;;16.00;;
8474;SDS011;4274;52.012;8.448;2023-02-22T01:28:19;77.40;;;16.10;;
8474;SDS011;4274;52.012;8.448;2023-02-22T01:30:46;73.83;;;15.07;;
8474;SDS011;4274;52.012;8.448;2023-02-22T01:33:12;78.03;;;16.50;;
8474;SDS011;4274;52.012;8.448;2023-02-22T01:35:39;76.07;;;15.50;;
8474;SDS011;4274;52.012;8.448;2023-02-22T01:38:06;83.17;;;17.50;;
8474;SDS011;4274;52.012;8.448;2023-02-22T01:40:36;74.60;;;15.30;;
8474;SDS011;4274;52.012;8.448;2023-02-22T01:43:14;75.07;;;15.23;;
8474;SDS011;4274;52.012;8.448;2023-02-22T01:45:53;75.23;;;16.03;;
8474;SDS011;4274;52.012;8.448;2023-02-22T01:48:29;76.23;;;17.27;;
8474;SDS011;4274;52.012;8.448;2023-02-22T01:51:20;80.10;;;17.73;;
8474;SDS011;4274;52.012;8.448;2023-02-22T01:56:18;80.30;;;16.23;;
8474;SDS011;4274;52.012;8.448;2023-02-22T01:58:47;77.00;;;16.13;;
8474;SDS011;4274;52.012;8.448;2023-02-22T02:01:17;96.60;;;18.33;;
8474;SDS011;4274;52.012;8.448;2023-02-22T02:03:45;82.63;;;17.40;;
8474;SDS011;4274;52.012;8.448;2023-02-22T02:06:13;88.13;;;18.27;;
8474;SDS011;4274;52.012;8.448;2023-02-22T02:08:54;87.43;;;17.60;;
8474;SDS011;4274;52.012;8.448;2023-02-22T02:11:28;86.17;;;17.00;;
8474;SDS011;4274;52.012;8.448;2023-02-22T02:13:55;88.70;;;17.97;;
8474;SDS011;4274;52.012;8.448;2023-02-22T02:16:23;83.07;;;18.20;;
8474;SDS011;4274;52.012;8.448;2023-02-22T02:18:53;84.17;;;17.60;;
8474;SDS011;4274;52.012;8.448;2023-02-22T02:24:06;89.37;;;18.60;;
8474;SDS011;4274;52.012;8.448;2023-02-22T02:27:04;85.27;;;18.67;;
8474;SDS011;4274;52.012;8.448;2023-02-22T02:32:21;83.47;;;18.90;;
8474;SDS011;4274;52.012;8.448;2023-02-22T02:37:41;98.40;;;19.17;;
8474;SDS011;4274;52.012;8.448;2023-02-22T02:45:45;83.17;;;18.97;;
8474;SDS011;4274;52.012;8.448;2023-02-22T02:48:15;80.63;;;18.07;;
8474;SDS011;4274;52.012;8.448;2023-02-22T02:50:46;98.50;;;19.27;;
8474;SDS011;4274;52.012;8.448;2023-02-22T02:53:14;91.10;;;19.83;;
8474;SDS011;4274;52.012;8.448;2023-02-22T02:55:43;86.97;;;19.00;;
8474;SDS011;4274;52.012;8.448;2023-02-22T02:58:10;92.10;;;20.00;;
8474;SDS011;4274;52.012;8.448;2023-02-22T03:00:45;97.83;;;21.07;;
8474;SDS011;4274;52.012;8.448;2023-02-22T03:08:42;89.30;;;19.03;;
8474;SDS011;4274;52.012;8.448;2023-02-22T03:11:18;95.33;;;20.80;;
8474;SDS011;4274;52.012;8.448;2023-02-22T03:16:32;95.87;;;21.30;;
8474;SDS011;4274;52.012;8.448;2023-02-22T03:24:30;96.97;;;20.30;;
8474;SDS011;4274;52.012;8.448;2023-02-22T03:27:10;95.70;;;19.90;;
8474;SDS011;4274;52.012;8.448;2023-02-22T03:29:45;99.57;;;20.73;;
8474;SDS011;4274;52.012;8.448;2023-02-22T03:32:15;106.60;;;20.90;;
8474;SDS011;4274;52.012;8.448;2023-02-22T03:34:50;98.17;;;22.00;;
8474;SDS011;4274;52.012;8.448;2023-02-22T03:37:22;94.63;;;19.97;;
8474;SDS011;4274;52.012;8.448;2023-02-22T03:39:53;98.40;;;20.77;;
8474;SDS011;4274;52.012;8.448;2023-02-22T03:42:22;94.00;;;20.27;;
8474;SDS011;4274;52.012;8.448;2023-02-22T03:44:51;92.30;;;19.87;;
8474;SDS011;4274;52.012;8.448;2023-02-22T03:47:22;108.80;;;22.03;;
8474;SDS011;4274;52.012;8.448;2023-02-22T03:50:14;98.60;;;22.90;;
8474;SDS011;4274;52.012;8.448;2023-02-22T03:52:45;104.03;;;21.27;;
8474;SDS011;4274;52.012;8.448;2023-02-22T03:55:12;109.63;;;22.70;;
8474;SDS011;4274;52.012;8.448;2023-02-22T03:57:42;96.47;;;21.10;;
8474;SDS011;4274;52.012;8.448;2023-02-22T04:00:13;113.37;;;22.57;;
8474;SDS011;4274;52.012;8.448;2023-02-22T04:02:42;102.07;;;20.80;;
8474;SDS011;4274;52.012;8.448;2023-02-22T04:05:08;98.63;;;22.70;;
8474;SDS011;4274;52.012;8.448;2023-02-22T04:07:34;108.90;;;22.90;;
8474;SDS011;4274;52.012;8.448;2023-02-22T04:09:59;109.97;;;21.67;;
8474;SDS011;4274;52.012;8.448;2023-02-22T04:12:26;113.50;;;22.47;;
8474;SDS011;4274;52.012;8.448;2023-02-22T04:14:52;93.77;;;20.40;;
8474;SDS011;4274;52.012;8.448;2023-02-22T04:17:18;108.50;;;22.23;;
8474;SDS011;4274;52.012;8.448;2023-02-22T04:19:43;103.63;;;23.53;;
8474;SDS011;4274;52.012;8.448;2023-02-22T04:22:09;110.93;;;22.80;;
8474;SDS011;4274;52.012;8.448;2023-02-22T04:24:35;111.17;;;23.67;;
8474;SDS011;4274;52.012;8.448;2023-02-22T04:27:01;121.33;;;24.20;;
8474;SDS011;4274;52.012;8.448;2023-02-22T04:29:27;105.60;;;22.60;;
8474;SDS011;4274;52.012;8.448;2023-02-22T04:31:54;115.57;;;24.03;;
8474;SDS011;4274;52.012;8.448;2023-02-22T04:34:19;121.00;;;23.93;;
8474;SDS011;4274;52.012;8.448;2023-02-22T04:36:45;112.57;;;24.27;;
8474;SDS011;4274;52.012;8.448;2023-02-22T04:39:11;127.73;;;25.70;;
8474;SDS011;4274;52.012;8.448;2023-02-22T04:41:37;125.93;;;25.17;;
8474;SDS011;4274;52.012;8.448;2023-02-22T04:44:02;134.33;;;27.77;;
8474;SDS011;4274;52.012;8.448;2023-02-22T04:46:28;121.73;;;25.70;;
8474;SDS011;4274;52.012;8.448;2023-02-22T04:48:55;124.77;;;26.10;;
8474;SDS011;4274;52.012;8.448;2023-02-22T04:51:21;113.80;;;25.57;;
8474;SDS011;4274;52.012;8.448;2023-02-22T04:53:47;149.60;;;27.73;;
8474;SDS011;4274;52.012;8.448;2023-02-22T04:56:15;125.00;;;26.27;;
8474;SDS011;4274;52.012;8.448;2023-02-22T04:58:41;117.20;;;24.00;;
8474;SDS011;4274;52.012;8.448;2023-02-22T05:01:07;121.87;;;26.40;;
8474;SDS011;4274;52.012;8.448;2023-02-22T05:03:32;130.57;;;27.40;;
8474;SDS011;4274;52.012;8.448;2023-02-22T05:05:58;126.83;;;28.90;;
8474;SDS011;4274;52.012;8.448;2023-02-22T05:08:23;119.43;;;27.43;;
8474;SDS011;4274;52.012;8.448;2023-02-22T05:10:49;139.77;;;32.13;;
8474;SDS011;4274;52.012;8.448;2023-02-22T05:13:15;129.93;;;29.00;;
8474;SDS011;4274;52.012;8.448;2023-02-22T05:15:40;149.43;;;30.27;;
8474;SDS011;4274;52.012;8.448;2023-02-22T05:18:06;128.40;;;28.30;;
8474;SDS011;4274;52.012;8.448;2023-02-22T05:20:33;141.37;;;28.53;;
8474;SDS011;4274;52.012;8.448;2023-02-22T05:22:59;141.33;;;29.17;;
8474;SDS011;4274;52.012;8.448;2023-02-22T05:25:26;135.57;;;30.13;;
8474;SDS011;4274;52.012;8.448;2023-02-22T05:28:02;132.20;;;31.30;;
8474;SDS011;4274;52.012;8.448;2023-02-22T05:30:30;138.67;;;29.73;;
8474;SDS011;4274;52.012;8.448;2023-02-22T05:32:58;123.93;;;27.93;;
8474;SDS011;4274;52.012;8.448;2023-02-22T05:35:24;134.97;;;28.53;;
8474;SDS011;4274;52.012;8.448;2023-02-22T05:37:51;129.03;;;27.60;;
8474;SDS011;4274;52.012;8.448;2023-02-22T05:40:21;124.10;;;28.03;;
8474;SDS011;4274;52.012;8.448;2023-02-22T05:42:49;135.37;;;30.00;;
8474;SDS011;4274;52.012;8.448;2023-02-22T05:45:16;131.90;;;29.27;;
8474;SDS011;4274;52.012;8.448;2023-02-22T05:47:43;140.80;;;27.93;;
8474;SDS011;4274;52.012;8.448;2023-02-22T05:50:09;131.57;;;27.97;;
8474;SDS011;4274;52.012;8.448;2023-02-22T05:52:35;138.40;;;29.70;;
8474;SDS011;4274;52.012;8.448;2023-02-22T05:55:02;132.73;;;28.57;;
8474;SDS011;4274;52.012;8.448;2023-02-22T05:57:29;130.77;;;27.60;;
8474;SDS011;4274;52.012;8.448;2023-02-22T05:59:55;122.67;;;26.57;;
8474;SDS011;4274;52.012;8.448;2023-02-22T06:02:21;139.60;;;30.87;;
8474;SDS011;4274;52.012;8.448;2023-02-22T06:04:46;131.17;;;27.70;;
8474;SDS011;4274;52.012;8.448;2023-02-22T06:07:12;118.27;;;27.43;;
8474;SDS011;4274;52.012;8.448;2023-02-22T06:09:38;135.30;;;27.27;;
8474;SDS011;4274;52.012;8.448;2023-02-22T06:12:04;130.73;;;28.83;;
8474;SDS011;4274;52.012;8.448;2023-02-22T06:14:29;109.93;;;27.20;;
8474;SDS011;4274;52.012;8.448;2023-02-22T06:16:57;115.67;;;26.23;;
8474;SDS011;4274;52.012;8.448;2023-02-22T06:19:24;133.37;;;28.57;;
8474;SDS011;4274;52.012;8.448;2023-02-22T06:21:51;115.37;;;28.40;;
8474;SDS011;4274;52.012;8.448;2023-02-22T06:24:18;128.60;;;27.83;;
8474;SDS011;4274;52.012;8.448;2023-02-22T06:26:44;120.43;;;27.70;;
8474;SDS011;4274;52.012;8.448;2023-02-22T06:29:09;128.43;;;29.53;;
8474;SDS011;4274;52.012;8.448;2023-02-22T06:31:35;130.43;;;31.00;;
8474;SDS011;4274;52.012;8.448;2023-02-22T06:34:01;112.00;;;28.27;;
8474;SDS011;4274;52.012;8.448;2023-02-22T06:36:27;116.67;;;26.90;;
8474;SDS011;4274;52.012;8.448;2023-02-22T06:38:54;111.57;;;27.10;;
8474;SDS011;4274;52.012;8.448;2023-02-22T06:41:20;112.63;;;28.10;;
8474;SDS011;4274;52.012;8.448;2023-02-22T06:43:46;108.67;;;24.10;;
8474;SDS011;4274;52.012;8.448;2023-02-22T06:46:12;100.37;;;25.73;;
8474;SDS011;4274;52.012;8.448;2023-02-22T06:48:38;108.37;;;25.30;;
8474;SDS011;4274;52.012;8.448;2023-02-22T06:51:04;108.43;;;24.60;;
8474;SDS011;4274;52.012;8.448;2023-02-22T06:53:32;109.30;;;26.23;;
8474;SDS011;4274;52.012;8.448;2023-02-22T06:55:58;98.87;;;24.77;;
8474;SDS011;4274;52.012;8.448;2023-02-22T06:58:24;102.27;;;26.23;;
8474;SDS011;4274;52.012;8.448;2023-02-22T07:00:50;99.63;;;25.53;;
8474;SDS011;4274;52.012;8.448;2023-02-22T07:03:15;103.30;;;26.73;;
8474;SDS011;4274;52.012;8.448;2023-02-22T07:05:41;113.93;;;25.07;;
8474;SDS011;4274;52.012;8.448;2023-02-22T07:08:07;99.37;;;25.93;;
8474;SDS011;4274;52.012;8.448;2023-02-22T07:10:33;101.97;;;26.47;;
8474;SDS011;4274;52.012;8.448;2023-02-22T07:13:00;98.17;;;23.60;;
8474;SDS011;4274;52.012;8.448;2023-02-22T07:15:26;87.97;;;22.53;;
8474;SDS011;4274;52.012;8.448;2023-02-22T07:17:53;97.23;;;23.13;;
8474;SDS011;4274;52.012;8.448;2023-02-22T07:20:20;105.87;;;25.57;;
8474;SDS011;4274;52.012;8.448;2023-02-22T07:22:47;95.47;;;24.47;;
8474;SDS011;4274;52.012;8.448;2023-02-22T07:25:13;92.07;;;24.00;;
8474;SDS011;4274;52.012;8.448;2023-02-22T07:27:39;90.50;;;22.60;;
8474;SDS011;4274;52.012;8.448;2023-02-22T07:30:06;90.83;;;23.60;;
8474;SDS011;4274;52.012;8.448;2023-02-22T07:32:34;90.67;;;24.03;;
8474;SDS011;4274;52.012;8.448;2023-02-22T07:35:00;93.47;;;23.87;;
8474;SDS011;4274;52.012;8.448;2023-02-22T07:37:26;90.20;;;23.70;;
8474;SDS011;4274;52.012;8.448;2023-02-22T07:39:52;84.53;;;21.73;;
8474;SDS011;4274;52.012;8.448;2023-02-22T07:42:18;86.87;;;21.20;;
8474;SDS011;4274;52.012;8.448;2023-02-22T07:44:43;78.97;;;20.23;;
8474;SDS011;4274;52.012;8.448;2023-02-22T07:47:09;81.33;;;21.53;;
8474;SDS011;4274;52.012;8.448;2023-02-22T07:49:36;84.87;;;21.50;;
8474;SDS011;4274;52.012;8.448;2023-02-22T07:52:02;78.73;;;20.97;;
8474;SDS011;4274;52.012;8.448;2023-02-22T07:54:28;85.17;;;22.83;;
8474;SDS011;4274;52.012;8.448;2023-02-22T07:56:53;83.00;;;22.10;;
8474;SDS011;4274;52.012;8.448;2023-02-22T07:59:19;84.47;;;22.10;;
8474;SDS011;4274;52.012;8.448;2023-02-22T08:01:47;85.10;;;20.73;;
8474;SDS011;4274;52.012;8.448;2023-02-22T08:04:14;80.67;;;20.53;;
8474;SDS011;4274;52.012;8.448;2023-02-22T08:06:39;85.67;;;20.93;;
8474;SDS011;4274;52.012;8.448;2023-02-22T08:09:05;74.13;;;20.27;;
8474;SDS011;4274;52.012;8.448;2023-02-22T08:11:31;74.13;;;20.70;;
8474;SDS011;4274;52.012;8.448;2023-02-22T08:13:57;73.53;;;18.47;;
8474;SDS011;4274;52.012;8.448;2023-02-22T08:16:22;71.97;;;19.90;;
8474;SDS011;4274;52.012;8.448;2023-02-22T08:18:48;69.40;;;18.70;;
8474;SDS011;4274;52.012;8.448;2023-02-22T08:21:14;75.63;;;19.20;;
8474;SDS011;4274;52.012;8.448;2023-02-22T08:23:40;72.27;;;19.27;;
8474;SDS011;4274;52.012;8.448;2023-02-22T08:26:06;71.27;;;19.13;;
8474;SDS011;4274;52.012;8.448;2023-02-22T08:28:33;72.80;;;18.40;;
8474;SDS011;4274;52.012;8.448;2023-02-22T08:30:59;70.43;;;17.63;;
8474;SDS011;4274;52.012;8.448;2023-02-22T08:33:25;69.63;;;17.90;;
8474;SDS011;4274;52.012;8.448;2023-02-22T08:35:50;73.43;;;18.20;;
8474;SDS011;4274;52.012;8.448;2023-02-22T08:38:21;73.80;;;18.40;;
8474;SDS011;4274;52.012;8.448;2023-02-22T08:40:49;70.23;;;17.70;;
8474;SDS011;4274;52.012;8.448;2023-02-22T08:43:15;67.47;;;16.97;;
8474;SDS011;4274;52.012;8.448;2023-02-22T08:45:41;68.97;;;17.57;;
8474;SDS011;4274;52.012;8.448;2023-02-22T08:48:08;69.97;;;17.33;;
8474;SDS011;4274;52.012;8.448;2023-02-22T08:50:33;72.00;;;19.43;;
8474;SDS011;4274;52.012;8.448;2023-02-22T08:53:00;68.30;;;17.97;;
8474;SDS011;4274;52.012;8.448;2023-02-22T08:55:28;68.90;;;17.50;;
8474;SDS011;4274;52.012;8.448;2023-02-22T08:57:56;69.53;;;18.13;;
8474;SDS011;4274;52.012;8.448;2023-02-22T09:00:22;65.53;;;17.30;;
8474;SDS011;4274;52.012;8.448;2023-02-22T09:02:49;70.60;;;16.97;;
8474;SDS011;4274;52.012;8.448;2023-02-22T09:05:15;69.90;;;16.50;;
8474;SDS011;4274;52.012;8.448;2023-02-22T09:07:41;69.70;;;17.73;;
8474;SDS011;4274;52.012;8.448;2023-02-22T09:10:09;67.17;;;18.57;;
8474;SDS011;4274;52.012;8.448;2023-02-22T09:12:39;64.60;;;16.90;;
8474;SDS011;4274;52.012;8.448;2023-02-22T09:15:05;68.10;;;17.87;;
8474;SDS011;4274;52.012;8.448;2023-02-22T09:17:31;66.67;;;17.27;;
8474;SDS011;4274;52.012;8.448;2023-02-22T09:19:57;66.37;;;16.40;;
8474;SDS011;4274;52.012;8.448;2023-02-22T09:22:22;69.00;;;16.73;;
8474;SDS011;4274;52.012;8.448;2023-02-22T09:24:48;69.40;;;16.30;;
8474;SDS011;4274;52.012;8.448;2023-02-22T09:27:15;68.00;;;16.90;;
8474;SDS011;4274;52.012;8.448;2023-02-22T09:29:44;70.30;;;17.10;;
8474;SDS011;4274;52.012;8.448;2023-02-22T09:32:12;63.20;;;14.97;;
8474;SDS011;4274;52.012;8.448;2023-02-22T09:34:37;68.00;;;18.07;;
8474;SDS011;4274;52.012;8.448;2023-02-22T09:37:09;64.43;;;16.10;;
8474;SDS011;4274;52.012;8.448;2023-02-22T09:39:35;65.27;;;16.20;;
8474;SDS011;4274;52.012;8.448;2023-02-22T09:42:08;65.70;;;17.23;;
8474;SDS011;4274;52.012;8.448;2023-02-22T09:44:51;64.97;;;16.83;;
8474;SDS011;4274;52.012;8.448;2023-02-22T09:47:26;68.27;;;15.70;;
8474;SDS011;4274;52.012;8.448;2023-02-22T09:52:40;69.50;;;17.10;;
8474;SDS011;4274;52.012;8.448;2023-02-22T09:55:21;64.87;;;16.13;;
8474;SDS011;4274;52.012;8.448;2023-02-22T09:57:55;65.80;;;17.33;;
8474;SDS011;4274;52.012;8.448;2023-02-22T10:00:23;66.63;;;16.60;;
8474;SDS011;4274;52.012;8.448;2023-02-22T10:05:46;66.70;;;16.63;;
8474;SDS011;4274;52.012;8.448;2023-02-22T10:08:18;70.33;;;16.10;;
8474;SDS011;4274;52.012;8.448;2023-02-22T10:10:45;61.90;;;15.60;;
8474;SDS011;4274;52.012;8.448;2023-02-22T10:15:58;68.20;;;16.27;;
8474;SDS011;4274;52.012;8.448;2023-02-22T10:24:17;66.50;;;15.80;;
8474;SDS011;4274;52.012;8.448;2023-02-22T10:27:03;63.40;;;14.87;;
8474;SDS011;4274;52.012;8.448;2023-02-22T10:29:35;66.20;;;16.77;;
8474;SDS011;4274;52.012;8.448;2023-02-22T10:32:03;65.53;;;16.23;;
8474;SDS011;4274;52.012;8.448;2023-02-22T10:34:31;62.50;;;15.30;;
8474;SDS011;4274;52.012;8.448;2023-02-22T10:37:10;66.30;;;15.10;;
8474;SDS011;4274;52.012;8.448;2023-02-22T10:39:47;63.77;;;15.07;;
8474;SDS011;4274;52.012;8.448;2023-02-22T10:42:16;64.57;;;15.97;;
8474;SDS011;4274;52.012;8.448;2023-02-22T10:44:46;61.87;;;14.93;;
8474;SDS011;4274;52.012;8.448;2023-02-22T10:47:12;61.07;;;13.87;;
8474;SDS011;4274;52.012;8.448;2023-02-22T10:49:40;59.57;;;13.90;;
8474;SDS011;4274;52.012;8.448;2023-02-22T10:52:18;65.03;;;14.00;;
8474;SDS011;4274;52.012;8.448;2023-02-22T10:54:51;61.70;;;14.80;;
8474;SDS011;4274;52.012;8.448;2023-02-22T10:57:22;65.30;;;15.83;;
8474;SDS011;4274;52.012;8.448;2023-02-22T10:59:51;62.67;;;14.30;;
8474;SDS011;4274;52.012;8.448;2023-02-22T11:02:22;59.37;;;12.80;;
8474;SDS011;4274;52.012;8.448;2023-02-22T11:04:54;60.40;;;13.83;;
8474;SDS011;4274;52.012;8.448;2023-02-22T11:07:23;65.68;;;14.20;;
8474;SDS011;4274;52.012;8.448;2023-02-22T11:09:52;60.23;;;13.13;;
8474;SDS011;4274;52.012;8.448;2023-02-22T11:12:28;57.77;;;12.33;;
8474;SDS011;4274;52.012;8.448;2023-02-22T11:14:54;67.87;;;13.13;;
8474;SDS011;4274;52.012;8.448;2023-02-22T11:17:23;63.40;;;13.83;;
8474;SDS011;4274;52.012;8.448;2023-02-22T11:19:54;60.50;;;13.33;;
8474;SDS011;4274;52.012;8.448;2023-02-22T11:22:27;61.77;;;12.93;;
8474;SDS011;4274;52.012;8.448;2023-02-22T11:25:00;59.17;;;12.27;;
8474;SDS011;4274;52.012;8.448;2023-02-22T11:30:15;62.93;;;12.57;;
8474;SDS011;4274;52.012;8.448;2023-02-22T11:32:44;58.17;;;11.50;;
8474;SDS011;4274;52.012;8.448;2023-02-22T11:37:44;62.70;;;12.07;;
8474;SDS011;4274;52.012;8.448;2023-02-22T11:40:17;57.67;;;11.90;;
8474;SDS011;4274;52.012;8.448;2023-02-22T11:43:04;58.50;;;11.97;;
8474;SDS011;4274;52.012;8.448;2023-02-22T11:45:34;65.13;;;11.90;;
8474;SDS011;4274;52.012;8.448;2023-02-22T11:48:00;57.37;;;11.23;;
8474;SDS011;4274;52.012;8.448;2023-02-22T11:53:17;56.90;;;10.87;;
8474;SDS011;4274;52.012;8.448;2023-02-22T11:58:27;55.77;;;11.20;;
8474;SDS011;4274;52.012;8.448;2023-02-22T12:07:13;56.87;;;10.83;;
8474;SDS011;4274;52.012;8.448;2023-02-22T12:10:05;60.73;;;11.17;;
8474;SDS011;4274;52.012;8.448;2023-02-22T12:13:04;57.57;;;10.97;;
8474;SDS011;4274;52.012;8.448;2023-02-22T12:16:07;56.90;;;10.80;;
8474;SDS011;4274;52.012;8.448;2023-02-22T12:21:29;60.57;;;11.00;;
8474;SDS011;4274;52.012;8.448;2023-02-22T12:24:03;57.87;;;10.77;;
8474;SDS011;4274;52.012;8.448;2023-02-22T12:26:39;57.93;;;9.87;;
8474;SDS011;4274;52.012;8.448;2023-02-22T12:29:11;55.83;;;9.80;;
8474;SDS011;4274;52.012;8.448;2023-02-22T12:31:49;60.10;;;10.00;;
8474;SDS011;4274;52.012;8.448;2023-02-22T12:45:35;56.22;;;9.45;;
8474;SDS011;4274;52.012;8.448;2023-02-22T12:50:52;55.50;;;8.77;;
8474;SDS011;4274;52.012;8.448;2023-02-22T12:56:28;58.40;;;9.90;;
8474;SDS011;4274;52.012;8.448;2023-02-22T13:02:00;59.67;;;9.17;;
8474;SDS011;4274;52.012;8.448;2023-02-22T13:04:33;56.07;;;9.43;;
8474;SDS011;4274;52.012;8.448;2023-02-22T13:07:17;56.40;;;9.60;;
8474;SDS011;4274;52.012;8.448;2023-02-22T13:15:35;56.87;;;9.90;;
8474;SDS011;4274;52.012;8.448;2023-02-22T13:18:10;54.93;;;9.33;;
8474;SDS011;4274;52.012;8.448;2023-02-22T13:20:51;53.10;;;8.23;;
8474;SDS011;4274;52.012;8.448;2023-02-22T13:24:13;56.27;;;8.80;;
8474;SDS011;4274;52.012;8.448;2023-02-22T13:26:25;53.90;;;8.83;;
8474;SDS011;4274;52.012;8.448;2023-02-22T13:29:19;56.17;;;8.63;;
8474;SDS011;4274;52.012;8.448;2023-02-22T13:31:53;56.20;;;9.33;;
8474;SDS011;4274;52.012;8.448;2023-02-22T13:39:54;56.20;;;9.03;;
8474;SDS011;4274;52.012;8.448;2023-02-22T13:42:43;54.20;;;8.80;;
8474;SDS011;4274;52.012;8.448;2023-02-22T13:45:19;55.97;;;8.10;;
8474;SDS011;4274;52.012;8.448;2023-02-22T13:47:54;58.75;;;7.95;;
8474;SDS011;4274;52.012;8.448;2023-02-22T13:53:40;55.63;;;8.63;;
8474;SDS011;4274;52.012;8.448;2023-02-22T13:56:14;53.10;;;8.43;;
8474;SDS011;4274;52.012;8.448;2023-02-22T13:58:57;64.30;;;8.30;;
8474;SDS011;4274;52.012;8.448;2023-02-22T14:01:42;55.23;;;8.53;;
8474;SDS011;4274;52.012;8.448;2023-02-22T14:06:57;53.00;;;8.60;;
8474;SDS011;4274;52.012;8.448;2023-02-22T14:15:15;53.13;;;8.10;;
8474;SDS011;4274;52.012;8.448;2023-02-22T14:22:48;58.43;;;8.43;;
8474;SDS011;4274;52.012;8.448;2023-02-22T14:25:28;56.07;;;8.20;;
8474;SDS011;4274;52.012;8.448;2023-02-22T14:28:08;52.27;;;8.63;;
8474;SDS011;4274;52.012;8.448;2023-02-22T14:31:11;57.60;;;9.47;;
8474;SDS011;4274;52.012;8.448;2023-02-22T14:55:48;50.87;;;7.63;;
8474;SDS011;4274;52.012;8.448;2023-02-22T14:58:37;54.00;;;9.00;;
8474;SDS011;4274;52.012;8.448;2023-02-22T15:06:56;55.13;;;9.40;;
8474;SDS011;4274;52.012;8.448;2023-02-22T15:09:24;53.10;;;8.73;;
8474;SDS011;4274;52.012;8.448;2023-02-22T15:14:30;54.13;;;9.07;;
8474;SDS011;4274;52.012;8.448;2023-02-22T15:17:01;56.73;;;8.60;;
8474;SDS011;4274;52.012;8.448;2023-02-22T15:19:34;55.90;;;9.47;;
8474;SDS011;4274;52.012;8.448;2023-02-22T15:22:02;52.80;;;8.17;;
8474;SDS011;4274;52.012;8.448;2023-02-22T15:24:33;57.20;;;9.97;;
8474;SDS011;4274;52.012;8.448;2023-02-22T15:27:04;57.63;;;9.53;;
8474;SDS011;4274;52.012;8.448;2023-02-22T15:29:34;53.07;;;8.60;;
8474;SDS011;4274;52.012;8.448;2023-02-22T15:32:09;51.47;;;8.13;;
8474;SDS011;4274;52.012;8.448;2023-02-22T15:34:53;51.27;;;7.97;;
8474;SDS011;4274;52.012;8.448;2023-02-22T15:37:21;54.80;;;9.53;;
8474;SDS011;4274;52.012;8.448;2023-02-22T15:39:53;56.90;;;8.30;;
8474;SDS011;4274;52.012;8.448;2023-02-22T15:42:48;52.57;;;8.03;;
8474;SDS011;4274;52.012;8.448;2023-02-22T15:45:18;54.90;;;8.60;;
8474;SDS011;4274;52.012;8.448;2023-02-22T15:47:46;52.40;;;7.87;;
8474;SDS011;4274;52.012;8.448;2023-02-22T15:55:57;49.50;;;7.90;;
8474;SDS011;4274;52.012;8.448;2023-02-22T15:58:25;49.70;;;7.63;;
8474;SDS011;4274;52.012;8.448;2023-02-22T16:00:58;53.30;;;8.07;;
8474;SDS011;4274;52.012;8.448;2023-02-22T16:03:26;51.17;;;8.10;;
8474;SDS011;4274;52.012;8.448;2023-02-22T16:06:09;52.10;;;8.07;;
8474;SDS011;4274;52.012;8.448;2023-02-22T16:08:44;59.70;;;8.03;;
8474;SDS011;4274;52.012;8.448;2023-02-22T16:11:34;57.00;;;8.10;;
8474;SDS011;4274;52.012;8.448;2023-02-22T16:14:04;52.27;;;8.93;;
8474;SDS011;4274;52.012;8.448;2023-02-22T16:16:32;54.07;;;7.40;;
8474;SDS011;4274;52.012;8.448;2023-02-22T16:21:50;52.00;;;8.90;;
8474;SDS011;4274;52.012;8.448;2023-02-22T16:24:24;52.97;;;8.77;;
8474;SDS011;4274;52.012;8.448;2023-02-22T16:27:01;55.40;;;9.27;;
8474;SDS011;4274;52.012;8.448;2023-02-22T16:29:29;51.40;;;8.80;;
8474;SDS011;4274;52.012;8.448;2023-02-22T16:31:54;53.87;;;8.93;;
8474;SDS011;4274;52.012;8.448;2023-02-22T16:34:20;60.00;;;10.17;;
8474;SDS011;4274;52.012;8.448;2023-02-22T16:36:46;52.00;;;8.67;;
8474;SDS011;4274;52.012;8.448;2023-02-22T16:39:25;50.50;;;8.40;;
8474;SDS011;4274;52.012;8.448;2023-02-22T16:42:02;51.50;;;8.17;;
8474;SDS011;4274;52.012;8.448;2023-02-22T16:44:29;50.70;;;8.23;;
8474;SDS011;4274;52.012;8.448;2023-02-22T16:46:56;53.50;;;9.00;;
8474;SDS011;4274;52.012;8.448;2023-02-22T16:49:25;57.80;;;9.93;;
8474;SDS011;4274;52.012;8.448;2023-02-22T16:52:00;60.40;;;12.30;;
8474;SDS011;4274;52.012;8.448;2023-02-22T16:54:32;58.30;;;12.13;;
8474;SDS011;4274;52.012;8.448;2023-02-22T16:57:01;59.50;;;12.87;;
8474;SDS011;4274;52.012;8.448;2023-02-22T16:59:30;57.10;;;11.20;;
8474;SDS011;4274;52.012;8.448;2023-02-22T17:02:00;57.73;;;10.30;;
8474;SDS011;4274;52.012;8.448;2023-02-22T17:04:25;55.43;;;9.20;;
8474;SDS011;4274;52.012;8.448;2023-02-22T17:06:53;55.78;;;8.50;;
8474;SDS011;4274;52.012;8.448;2023-02-22T17:09:18;56.10;;;11.63;;
8474;SDS011;4274;52.012;8.448;2023-02-22T17:11:44;57.50;;;10.60;;
8474;SDS011;4274;52.012;8.448;2023-02-22T17:14:16;68.00;;;14.83;;
8474;SDS011;4274;52.012;8.448;2023-02-22T17:16:44;61.50;;;13.47;;
8474;SDS011;4274;52.012;8.448;2023-02-22T17:19:14;56.57;;;10.53;;
8474;SDS011;4274;52.012;8.448;2023-02-22T17:21:44;57.80;;;10.90;;
8474;SDS011;4274;52.012;8.448;2023-02-22T17:24:11;61.00;;;10.50;;
8474;SDS011;4274;52.012;8.448;2023-02-22T17:26:38;54.70;;;10.40;;
8474;SDS011;4274;52.012;8.448;2023-02-22T17:29:04;55.67;;;10.00;;
8474;SDS011;4274;52.012;8.448;2023-02-22T17:31:30;53.17;;;10.27;;
8474;SDS011;4274;52.012;8.448;2023-02-22T17:33:58;61.57;;;11.13;;